createdAt,value
2019-02-26T00:00:36.866Z,93.48
2019-02-26T00:03:05.173Z,93.42
2019-02-26T00:05:33.452Z,93.48
2019-02-26T00:08:02.622Z,93.33
2019-02-26T00:10:31.540Z,93.32
2019-02-26T00:13:00.999Z,94.04
2019-02-26T00:15:31.326Z,94.18
2019-02-26T00:17:59.297Z,94.78
2019-02-26T00:20:29.625Z,95.33
2019-02-26T00:22:59.655Z,95.65
2019-02-26T00:25:27.663Z,95.62
2019-02-26T00:27:56.888Z,95.46
2019-02-26T00:30:25.979Z,95.57
2019-02-26T00:32:55.429Z,95.09
2019-02-26T00:35:25.325Z,95.03
2019-02-26T00:37:55.788Z,95.84
2019-02-26T00:40:24.125Z,96.04
2019-02-26T00:42:54.614Z,96.93
2019-02-26T00:45:24.806Z,97.15
2019-02-26T00:47:52.421Z,97.31
2019-02-26T00:50:20.714Z,97.44
2019-02-26T00:52:48.990Z,97.87
2019-02-26T00:55:17.281Z,98.35
2019-02-26T00:57:45.565Z,98.73
2019-02-26T01:00:17.224Z,99.36
2019-02-26T01:02:45.798Z,100.00
2019-02-26T01:05:15.846Z,100.00
2019-02-26T01:07:46.690Z,100.00
2019-02-26T01:10:16.386Z,100.00
2019-02-26T01:12:44.479Z,100.00
2019-02-26T01:15:17.595Z,100.00
2019-02-26T01:17:45.950Z,100.00
2019-02-26T01:20:15.803Z,100.00
2019-02-26T01:22:45.371Z,100.00
2019-02-26T01:25:15.937Z,100.00
2019-02-26T01:27:47.604Z,100.00
2019-02-26T01:30:18.151Z,100.00
2019-02-26T01:32:45.374Z,100.00
2019-02-26T01:35:13.736Z,100.00
2019-02-26T01:37:42.030Z,100.00
2019-02-26T01:40:13.802Z,100.00
2019-02-26T01:42:47.058Z,100.00
2019-02-26T01:45:13.677Z,100.00
2019-02-26T01:47:42.854Z,100.00
2019-02-26T01:50:13.418Z,100.00
2019-02-26T01:52:42.824Z,100.00
2019-02-26T01:55:11.736Z,100.00
2019-02-26T01:57:42.548Z,100.00
2019-02-26T02:00:13.206Z,100.00
2019-02-26T02:02:41.523Z,100.00
2019-02-26T02:05:09.985Z,100.00
2019-02-26T02:07:38.323Z,100.00
2019-02-26T02:10:15.405Z,100.00
2019-02-26T02:12:43.678Z,100.00
2019-02-26T02:15:17.925Z,100.00
2019-02-26T02:18:09.275Z,100.00
2019-02-26T02:20:37.564Z,100.00
2019-02-26T02:23:07.095Z,100.00
2019-02-26T02:25:36.195Z,100.00
2019-02-26T02:28:05.446Z,100.00
2019-02-26T02:30:35.613Z,100.00
2019-02-26T02:33:03.818Z,100.00
2019-02-26T02:35:32.089Z,100.00
2019-02-26T02:38:02.802Z,100.00
2019-02-26T02:40:30.359Z,100.00
2019-02-26T02:43:03.964Z,100.00
2019-02-26T02:45:28.640Z,100.00
2019-02-26T02:48:00.360Z,100.00
2019-02-26T02:50:26.911Z,100.00
2019-02-26T02:52:56.901Z,100.00
2019-02-26T02:55:25.189Z,100.00
2019-02-26T02:57:55.153Z,100.00
2019-02-26T03:00:25.996Z,100.00
2019-02-26T03:02:55.655Z,100.00
2019-02-26T03:05:23.486Z,100.00
2019-02-26T03:07:54.029Z,100.00
2019-02-26T03:10:26.094Z,100.00
2019-02-26T03:23:04.091Z,100.00
2019-02-26T03:25:32.118Z,100.00
2019-02-26T03:28:00.425Z,100.00
2019-02-26T03:30:33.887Z,100.00
2019-02-26T03:33:04.103Z,100.00
2019-02-26T03:35:28.753Z,100.00
2019-02-26T03:37:58.048Z,100.00
2019-02-26T03:40:29.852Z,100.00
2019-02-26T03:42:57.079Z,100.00
2019-02-26T03:45:25.361Z,100.00
2019-02-26T03:47:55.348Z,100.00
2019-02-26T03:50:26.312Z,100.00
2019-02-26T03:52:53.712Z,100.00
2019-02-26T03:55:22.010Z,100.00
2019-02-26T03:57:53.329Z,100.00
2019-02-26T04:00:20.643Z,100.00
2019-02-26T04:02:51.641Z,100.00
2019-02-26T04:05:18.994Z,100.00
2019-02-26T04:07:49.876Z,100.00
2019-02-26T04:10:17.291Z,100.00
2019-02-26T04:12:48.700Z,100.00
2019-02-26T04:15:17.634Z,100.00
2019-02-26T04:17:45.936Z,100.00
2019-02-26T04:20:15.035Z,100.00
2019-02-26T04:22:48.887Z,100.00
2019-02-26T04:25:22.099Z,100.00
2019-02-26T04:28:07.982Z,100.00
2019-02-26T04:30:56.389Z,100.00
2019-02-26T04:33:50.453Z,100.00
2019-02-26T04:36:27.696Z,100.00
2019-02-26T04:39:28.918Z,100.00
2019-02-26T04:42:19.756Z,100.00
2019-02-26T04:45:09.074Z,100.00
2019-02-26T04:47:48.731Z,100.00
2019-02-26T04:50:16.315Z,100.00
2019-02-26T04:52:44.620Z,100.00
2019-02-26T04:55:12.901Z,100.00
2019-02-26T04:57:43.330Z,100.00
2019-02-26T05:00:11.362Z,100.00
2019-02-26T05:02:39.642Z,100.00
2019-02-26T05:05:08.413Z,100.00
2019-02-26T05:07:38.585Z,100.00
2019-02-26T05:10:07.620Z,100.00
2019-02-26T05:12:37.897Z,100.00
2019-02-26T05:15:11.518Z,100.00
2019-02-26T05:17:39.802Z,100.00
2019-02-26T05:20:10.639Z,100.00
2019-02-26T05:22:38.097Z,100.00
2019-02-26T05:25:11.028Z,100.00
2019-02-26T05:27:39.709Z,100.00
2019-02-26T05:30:09.872Z,100.00
2019-02-26T05:32:39.076Z,100.00
2019-02-26T05:35:07.351Z,100.00
2019-02-26T05:37:40.206Z,100.00
2019-02-26T05:40:09.534Z,100.00
2019-02-26T05:42:36.759Z,100.00
2019-02-26T05:45:09.173Z,100.00
2019-02-26T05:47:36.083Z,100.00
2019-02-26T05:50:13.030Z,100.00
2019-02-26T05:52:37.136Z,100.00
2019-02-26T05:55:05.378Z,100.00
2019-02-26T05:57:33.674Z,100.00
2019-02-26T06:00:01.951Z,100.00
2019-02-26T06:02:30.218Z,100.00
2019-02-26T06:04:58.513Z,100.00
2019-02-26T06:07:28.109Z,100.00
2019-02-26T06:09:59.094Z,100.00
2019-02-26T06:12:26.790Z,100.00
2019-02-26T06:14:57.668Z,100.00
2019-02-26T06:17:25.077Z,100.00
2019-02-26T06:19:54.697Z,100.00
2019-02-26T06:22:24.352Z,100.00
2019-02-26T06:24:57.238Z,100.00
2019-02-26T06:27:25.124Z,100.00
2019-02-26T06:29:57.309Z,100.00
2019-02-26T06:32:27.419Z,100.00
2019-02-26T06:34:52.976Z,100.00
2019-02-26T06:37:23.594Z,100.00
2019-02-26T06:39:54.873Z,100.00
2019-02-26T06:42:21.993Z,100.00
2019-02-26T06:44:51.414Z,100.00
2019-02-26T06:47:21.128Z,100.00
2019-02-26T06:49:50.314Z,100.00
2019-02-26T06:52:19.730Z,100.00
2019-02-26T06:54:54.188Z,100.00
2019-02-26T06:57:18.032Z,100.00
2019-02-26T06:59:46.314Z,100.00
2019-02-26T07:02:14.608Z,100.00
2019-02-26T07:04:42.912Z,100.00
2019-02-26T07:07:14.172Z,100.00
2019-02-26T07:09:41.956Z,100.00
2019-02-26T07:12:11.189Z,100.00
2019-02-26T07:14:39.477Z,100.00
2019-02-26T07:17:07.776Z,100.00
2019-02-26T07:19:38.017Z,100.00
2019-02-26T07:22:08.293Z,100.00
2019-02-26T07:24:38.355Z,100.00
2019-02-26T07:27:08.910Z,100.00
2019-02-26T07:29:40.014Z,100.00
2019-02-26T07:32:06.949Z,100.00
2019-02-26T07:34:35.236Z,100.00
2019-02-26T07:37:04.260Z,100.00
2019-02-26T07:39:33.513Z,100.00
2019-02-26T07:42:01.808Z,100.00
2019-02-26T07:44:30.092Z,100.00
2019-02-26T07:47:00.646Z,100.00
2019-02-26T07:49:28.387Z,100.00
2019-02-26T07:51:58.276Z,100.00
2019-02-26T07:54:28.669Z,100.00
2019-02-26T07:56:57.623Z,100.00
2019-02-26T07:59:27.819Z,100.00
2019-02-26T08:01:56.240Z,100.00
2019-02-26T08:04:24.519Z,100.00
2019-02-26T08:06:56.265Z,100.00
2019-02-26T08:09:23.658Z,99.64
2019-02-26T08:11:51.948Z,98.83
2019-02-26T08:14:20.972Z,97.77
2019-02-26T08:16:53.618Z,97.13
2019-02-26T08:19:20.225Z,95.82
2019-02-26T08:21:50.252Z,94.72
2019-02-26T08:24:20.347Z,93.95
2019-02-26T08:26:49.771Z,92.90
2019-02-26T08:29:18.140Z,91.45
2019-02-26T08:31:47.443Z,88.69
2019-02-26T08:34:16.396Z,88.28
2019-02-26T08:36:46.827Z,87.40
2019-02-26T08:39:15.688Z,86.94
2019-02-26T08:41:56.043Z,86.36
2019-02-26T08:44:24.311Z,85.51
2019-02-26T08:46:52.600Z,83.40
2019-02-26T08:49:22.537Z,81.41
2019-02-26T08:51:50.844Z,81.61
2019-02-26T08:54:21.276Z,80.18
2019-02-26T08:56:49.117Z,79.03
2019-02-26T08:59:19.595Z,78.79
2019-02-26T09:01:47.413Z,78.21
2019-02-26T09:04:17.463Z,77.71
2019-02-26T09:06:45.679Z,77.71
2019-02-26T09:09:13.947Z,76.53
2019-02-26T09:11:42.217Z,75.46
2019-02-26T09:14:12.126Z,74.62
2019-02-26T09:16:40.471Z,73.74
2019-02-26T09:19:08.744Z,73.53
2019-02-26T09:21:39.524Z,71.62
2019-02-26T09:24:07.707Z,72.14
2019-02-26T09:26:36.120Z,72.00
2019-02-26T09:29:04.395Z,71.50
2019-02-26T09:31:32.674Z,70.80
2019-02-26T09:34:00.951Z,69.38
2019-02-26T09:36:29.527Z,70.19
2019-02-26T09:38:57.785Z,69.50
2019-02-26T09:41:26.063Z,69.36
2019-02-26T09:43:54.340Z,69.29
2019-02-26T09:46:22.618Z,67.66
2019-02-26T09:48:50.896Z,67.71
2019-02-26T09:51:19.171Z,66.48
2019-02-26T09:53:49.365Z,65.74
2019-02-26T09:56:17.459Z,65.74
2019-02-26T09:58:48.219Z,64.70
2019-02-26T10:01:17.950Z,64.21
2019-02-26T10:03:45.812Z,64.99
2019-02-26T10:06:15.903Z,65.17
2019-02-26T10:08:46.010Z,64.42
2019-02-26T10:11:16.014Z,64.43
2019-02-26T10:13:44.897Z,60.80
2019-02-26T10:16:14.076Z,61.20
2019-02-26T10:18:42.348Z,59.27
2019-02-26T10:21:12.053Z,58.76
2019-02-26T10:23:40.601Z,60.11
2019-02-26T10:26:10.723Z,58.30
2019-02-26T10:28:40.327Z,56.94
2019-02-26T10:31:09.724Z,56.94
2019-02-26T10:33:41.118Z,56.17
2019-02-26T10:36:11.186Z,57.73
2019-02-26T10:38:38.949Z,55.66
2019-02-26T10:41:07.239Z,56.50
2019-02-26T10:43:35.516Z,55.62
2019-02-26T10:46:03.798Z,52.23
2019-02-26T10:48:32.072Z,53.28
2019-02-26T10:51:00.597Z,53.52
2019-02-26T10:53:28.895Z,54.65
2019-02-26T10:55:57.181Z,53.18
2019-02-26T10:58:25.462Z,53.62
2019-02-26T11:00:55.598Z,51.92
2019-02-26T11:03:23.915Z,52.91
2019-02-26T11:05:52.483Z,53.22
2019-02-26T11:08:23.422Z,54.97
2019-02-26T11:10:52.384Z,55.16
2019-02-26T11:13:23.038Z,55.82
2019-02-26T11:15:53.441Z,54.66
2019-02-26T11:18:23.241Z,54.22
2019-02-26T11:20:52.868Z,52.71
2019-02-26T11:23:30.368Z,53.01
2019-02-26T11:25:50.784Z,51.27
2019-02-26T11:28:19.077Z,51.34
2019-02-26T11:30:49.068Z,51.87
2019-02-26T11:33:17.440Z,52.70
2019-02-26T11:35:47.064Z,50.97
2019-02-26T11:38:17.021Z,50.93
2019-02-26T11:40:45.720Z,51.71
2019-02-26T11:43:15.031Z,52.61
2019-02-26T11:45:44.520Z,53.43
2019-02-26T11:48:12.867Z,52.18
2019-02-26T11:50:44.239Z,52.62
2019-02-26T11:53:11.151Z,51.93
2019-02-26T11:55:39.423Z,51.81
2019-02-26T11:58:10.145Z,50.60
2019-02-26T12:00:42.224Z,50.89
2019-02-26T12:03:09.401Z,51.58
2019-02-26T12:05:41.221Z,50.47
2019-02-26T12:08:07.689Z,50.92
2019-02-26T12:10:37.782Z,51.09
2019-02-26T12:13:05.971Z,50.03
2019-02-26T12:15:36.261Z,49.88
2019-02-26T12:18:04.336Z,50.04
2019-02-26T12:20:32.679Z,50.92
2019-02-26T12:23:00.955Z,49.51
2019-02-26T12:25:29.230Z,49.60
2019-02-26T12:27:57.517Z,49.81
2019-02-26T12:30:27.033Z,48.73
2019-02-26T12:32:55.336Z,49.48
2019-02-26T12:35:23.601Z,49.30
2019-02-26T12:37:53.902Z,48.89
2019-02-26T12:40:25.130Z,47.54
2019-02-26T12:42:51.901Z,47.66
2019-02-26T12:45:26.102Z,47.33
2019-02-26T12:47:55.253Z,47.29
2019-02-26T12:50:28.974Z,46.77
2019-02-26T12:52:56.782Z,45.94
2019-02-26T12:55:29.555Z,45.15
2019-02-26T12:57:56.495Z,45.20
2019-02-26T13:00:24.911Z,45.26
2019-02-26T13:02:53.185Z,43.75
2019-02-26T13:05:23.050Z,44.60
2019-02-26T13:07:51.517Z,44.43
2019-02-26T13:10:22.978Z,44.42
2019-02-26T13:12:58.605Z,44.13
2019-02-26T13:15:21.887Z,44.87
2019-02-26T13:17:54.313Z,45.18
2019-02-26T13:20:27.618Z,44.84
2019-02-26T13:23:00.543Z,45.60
2019-02-26T13:25:26.901Z,46.19
2019-02-26T13:27:55.335Z,46.35
2019-02-26T13:30:27.504Z,46.67
2019-02-26T13:32:59.921Z,46.89
2019-02-26T13:35:25.800Z,46.02
2019-02-26T13:37:56.385Z,46.20
2019-02-26T13:40:25.118Z,45.75
2019-02-26T13:45:26.045Z,46.21
2019-02-26T13:48:00.867Z,46.30
2019-02-26T13:50:31.721Z,46.63
2019-02-26T13:53:00.063Z,45.99
2019-02-26T13:55:28.348Z,46.79
2019-02-26T13:57:56.619Z,45.69
2019-02-26T14:00:26.652Z,44.80
2019-02-26T14:02:54.936Z,46.21
2019-02-26T14:05:23.230Z,43.97
2019-02-26T14:07:51.644Z,44.36
2019-02-26T14:10:21.364Z,42.64
2019-02-26T14:12:49.722Z,43.91
2019-02-26T14:15:30.445Z,43.61
2019-02-26T14:17:58.784Z,44.24
2019-02-26T14:20:27.084Z,44.47
2019-02-26T14:22:55.363Z,45.23
2019-02-26T14:25:23.646Z,45.01
2019-02-26T14:27:52.003Z,44.09
2019-02-26T14:30:22.489Z,43.08
2019-02-26T14:32:50.784Z,43.45
2019-02-26T14:35:19.130Z,44.04
2019-02-26T14:37:47.484Z,45.59
2019-02-26T14:40:18.930Z,45.58
2019-02-26T14:42:47.216Z,45.07
2019-02-26T14:45:16.723Z,46.51
2019-02-26T14:47:45.004Z,46.58
2019-02-26T14:50:17.381Z,45.37
2019-02-26T14:52:46.247Z,46.07
2019-02-26T14:55:15.449Z,44.74
2019-02-26T14:57:43.765Z,44.89
2019-02-26T15:00:15.052Z,44.90
2019-02-26T15:02:46.230Z,45.54
2019-02-26T15:05:14.508Z,46.08
2019-02-26T15:07:42.796Z,45.63
2019-02-26T15:10:12.013Z,46.12
2019-02-26T15:12:40.295Z,46.54
2019-02-26T15:15:17.642Z,47.03
2019-02-26T15:17:45.987Z,47.72
2019-02-26T15:20:25.119Z,47.89
2019-02-26T15:22:53.553Z,48.47
2019-02-26T15:25:31.760Z,48.27
2019-02-26T15:28:05.075Z,48.97
2019-02-26T15:30:30.667Z,48.82
2019-02-26T15:32:58.955Z,48.73
2019-02-26T15:35:27.415Z,48.10
2019-02-26T15:37:55.684Z,48.35
2019-02-26T15:40:23.956Z,49.15
2019-02-26T15:42:54.411Z,49.07
2019-02-26T15:45:24.156Z,48.91
2019-02-26T15:47:52.539Z,48.93
2019-02-26T15:50:21.368Z,49.88
2019-02-26T15:52:52.616Z,50.41
2019-02-26T15:55:25.963Z,50.99
2019-02-26T15:57:55.336Z,52.09
2019-02-26T16:00:24.615Z,52.24
2019-02-26T16:02:53.644Z,52.74
2019-02-26T16:05:24.176Z,53.08
2019-02-26T16:07:52.611Z,53.70
2019-02-26T16:10:22.256Z,54.06
2019-02-26T16:12:51.157Z,54.73
2019-02-26T16:15:19.438Z,55.20
2019-02-26T16:17:47.716Z,55.65
2019-02-26T16:20:21.195Z,56.08
2019-02-26T16:22:49.471Z,56.63
2019-02-26T16:25:17.761Z,56.50
2019-02-26T16:27:46.037Z,57.03
2019-02-26T16:30:28.347Z,57.29
2019-02-26T16:32:56.624Z,57.60
2019-02-26T16:35:25.736Z,57.44
2019-02-26T16:37:54.056Z,57.73
2019-02-26T16:40:22.417Z,57.75
2019-02-26T16:42:50.714Z,57.50
2019-02-26T16:45:22.357Z,57.97
2019-02-26T16:47:50.656Z,58.25
2019-02-26T16:50:23.231Z,59.02
2019-02-26T16:52:51.516Z,58.92
2019-02-26T16:55:20.233Z,59.58
2019-02-26T16:57:48.692Z,59.71
2019-02-26T17:00:30.004Z,60.70
2019-02-26T17:03:00.974Z,60.67
2019-02-26T17:05:28.479Z,61.83
2019-02-26T17:07:57.047Z,62.05
2019-02-26T17:10:29.055Z,61.86
2019-02-26T17:12:56.292Z,63.56
2019-02-26T17:15:31.191Z,63.03
2019-02-26T17:17:59.535Z,64.25
2019-02-26T17:20:27.856Z,64.01
2019-02-26T17:22:56.088Z,65.58
2019-02-26T17:25:27.545Z,64.40
2019-02-26T17:27:54.396Z,64.72
2019-02-26T17:30:23.925Z,65.23
2019-02-26T17:32:52.651Z,67.16
2019-02-26T17:35:20.924Z,67.57
2019-02-26T17:37:49.197Z,67.46
2019-02-26T17:40:18.726Z,68.04
2019-02-26T17:42:48.815Z,68.58
2019-02-26T17:45:30.666Z,69.83
2019-02-26T17:47:58.960Z,71.12
2019-02-26T17:50:32.599Z,72.03
2019-02-26T17:53:00.890Z,72.62
2019-02-26T17:55:29.173Z,72.58
2019-02-26T17:57:57.494Z,73.04
2019-02-26T18:00:27.627Z,73.42
2019-02-26T18:02:55.883Z,73.80
2019-02-26T18:05:24.161Z,73.69
2019-02-26T18:07:52.460Z,74.22
2019-02-26T18:10:22.277Z,74.51
2019-02-26T18:12:50.551Z,74.78
2019-02-26T18:15:20.757Z,74.52
2019-02-26T18:17:48.907Z,74.49
2019-02-26T18:20:19.708Z,74.16
2019-02-26T18:22:48.160Z,74.16
2019-02-26T18:25:18.385Z,74.51
2019-02-26T18:27:46.832Z,74.39
2019-02-26T18:30:25.709Z,74.98
2019-02-26T18:32:56.426Z,75.13
2019-02-26T18:35:23.996Z,75.83
2019-02-26T18:37:52.280Z,76.08
2019-02-26T18:40:20.572Z,75.15
2019-02-26T18:42:49.086Z,75.18
2019-02-26T18:45:28.856Z,76.01
2019-02-26T18:47:57.460Z,76.66
2019-02-26T18:50:28.604Z,77.67
2019-02-26T18:52:58.063Z,78.38
2019-02-26T18:55:28.406Z,78.92
2019-02-26T18:57:56.377Z,79.25
2019-02-26T19:00:27.456Z,80.13
2019-02-26T19:02:55.730Z,81.26
2019-02-26T19:05:24.011Z,81.66
2019-02-26T19:07:52.280Z,81.18
2019-02-26T19:10:21.089Z,80.93
2019-02-26T19:12:49.406Z,80.80
2019-02-26T19:15:21.979Z,81.33
2019-02-26T19:17:52.098Z,81.80
2019-02-26T19:20:22.805Z,82.34
2019-02-26T19:22:52.040Z,83.25
2019-02-26T19:25:20.452Z,83.49
2019-02-26T19:27:52.844Z,83.36
2019-02-26T19:30:21.152Z,83.43
2019-02-26T19:32:49.458Z,83.93
2019-02-26T19:35:17.744Z,84.20
2019-02-26T19:37:47.872Z,84.29
2019-02-26T19:40:39.006Z,84.90
2019-02-26T19:43:07.139Z,85.25
2019-02-26T19:45:35.437Z,85.27
2019-02-26T19:48:03.700Z,85.35
2019-02-26T19:50:31.972Z,85.14
2019-02-26T19:53:02.503Z,85.02
2019-02-26T19:55:35.844Z,85.39
2019-02-26T19:58:06.697Z,86.50
2019-02-26T20:00:34.208Z,86.73
2019-02-26T20:03:04.891Z,86.47
2019-02-26T20:05:32.464Z,86.62
2019-02-26T20:08:05.007Z,86.56
2019-02-26T20:10:30.764Z,87.15
2019-02-26T20:13:01.336Z,87.38
2019-02-26T20:15:30.491Z,87.03
2019-02-26T20:17:58.824Z,86.98
2019-02-26T20:20:27.113Z,87.65
2019-02-26T20:22:55.411Z,87.67
2019-02-26T20:25:23.683Z,88.22
2019-02-26T20:27:54.620Z,88.83
2019-02-26T20:30:23.125Z,89.44
2019-02-26T20:32:51.485Z,89.93
2019-02-26T20:35:19.768Z,90.25
2019-02-26T20:37:48.051Z,90.16
2019-02-26T20:40:23.708Z,90.36
2019-02-26T20:42:52.076Z,90.81
2019-02-26T20:45:22.620Z,90.78
2019-02-26T20:47:51.067Z,91.46
2019-02-26T20:50:21.072Z,91.75
2019-02-26T20:52:49.397Z,91.31
2019-02-26T20:55:22.725Z,91.67
2019-02-26T20:57:51.015Z,91.67
2019-02-26T21:00:20.039Z,91.53
2019-02-26T21:02:51.564Z,91.54
2019-02-26T21:05:19.906Z,91.91
2019-02-26T21:07:49.676Z,91.91
2019-02-26T21:10:18.878Z,92.36
2019-02-26T21:12:47.240Z,92.72
2019-02-26T21:15:20.159Z,93.18
2019-02-26T21:17:48.455Z,93.68
2019-02-26T21:20:16.755Z,93.99
2019-02-26T21:22:45.050Z,94.15
2019-02-26T21:25:14.067Z,94.31
2019-02-26T21:27:42.370Z,93.91
2019-02-26T21:30:18.491Z,93.38
2019-02-26T21:32:46.783Z,93.37
2019-02-26T21:35:15.135Z,93.33
2019-02-26T21:37:43.410Z,93.93
2019-02-26T21:40:16.170Z,94.09
2019-02-26T21:42:45.109Z,94.42
2019-02-26T21:45:15.974Z,94.71
2019-02-26T21:47:44.607Z,94.60
2019-02-26T21:50:16.921Z,94.37
2019-02-26T21:52:59.013Z,93.98
2019-02-26T21:55:15.940Z,94.14
2019-02-26T21:57:44.236Z,94.25
2019-02-26T22:00:15.955Z,94.28
2019-02-26T22:02:44.529Z,94.29
2019-02-26T22:05:12.800Z,94.22
2019-02-26T22:07:41.095Z,94.24
2019-02-26T22:10:15.484Z,94.11
2019-02-26T22:12:44.436Z,93.90
2019-02-26T22:15:14.367Z,93.50
2019-02-26T22:17:42.649Z,94.35
2019-02-26T22:20:23.469Z,94.99
2019-02-26T22:22:43.416Z,95.77
2019-02-26T22:25:16.057Z,96.19
2019-02-26T22:27:42.580Z,96.44
2019-02-26T22:30:15.797Z,96.44
2019-02-26T22:32:44.087Z,96.76
2019-02-26T22:35:12.373Z,97.00
2019-02-26T22:37:41.378Z,97.19
2019-02-26T22:40:13.870Z,97.19
2019-02-26T22:42:42.174Z,97.23
2019-02-26T22:45:14.854Z,97.19
2019-02-26T22:47:44.232Z,97.64
2019-02-26T22:50:17.369Z,98.11
2019-02-26T22:52:45.653Z,98.27
2019-02-26T22:55:16.601Z,98.26
2019-02-26T22:57:45.160Z,98.32
2019-02-26T23:00:23.899Z,98.32
2019-02-26T23:02:52.178Z,98.63
2019-02-26T23:05:20.461Z,98.79
2019-02-26T23:07:48.741Z,98.89
2019-02-26T23:10:17.114Z,98.99
2019-02-26T23:12:45.409Z,99.00
2019-02-26T23:15:13.690Z,98.95
2019-02-26T23:17:42.045Z,99.02
2019-02-26T23:20:11.700Z,99.05
2019-02-26T23:22:40.068Z,98.90
2019-02-26T23:25:09.310Z,99.02
2019-02-26T23:27:37.600Z,99.15
2019-02-26T23:30:09.218Z,99.38
2019-02-26T23:32:38.919Z,99.42
2019-02-26T23:35:10.695Z,99.68
2019-02-26T23:37:38.984Z,99.75
2019-02-26T23:40:10.059Z,99.88
2019-02-26T23:42:38.950Z,100.00
2019-02-26T23:45:12.522Z,99.53
2019-02-26T23:47:40.814Z,98.96
2019-02-26T23:50:10.630Z,98.66
2019-02-26T23:52:38.941Z,98.91
2019-02-26T23:55:13.021Z,99.00
2019-02-26T23:57:39.216Z,98.96
